createdAt,value
2023-05-17T00:02:22.846Z,15.32
2023-05-17T00:04:54.255Z,15.31
2023-05-17T00:07:25.148Z,15.31
2023-05-17T00:09:55.895Z,15.29
2023-05-17T00:12:26.712Z,15.27
2023-05-17T00:14:57.600Z,15.19
2023-05-17T00:17:28.413Z,15.13
2023-05-17T00:19:59.090Z,15.08
2023-05-17T00:22:29.979Z,15.06
2023-05-17T00:25:00.818Z,15.00
2023-05-17T00:27:31.667Z,14.96
2023-05-17T00:30:02.420Z,14.92
2023-05-17T00:32:33.206Z,14.86
2023-05-17T00:35:04.068Z,14.83
2023-05-17T00:37:34.909Z,14.83
2023-05-17T00:40:06.432Z,14.84
2023-05-17T00:42:37.390Z,14.80
2023-05-17T00:45:10.303Z,14.80
2023-05-17T00:47:41.221Z,14.76
2023-05-17T00:50:13.158Z,14.75
2023-05-17T00:52:44.058Z,14.72
2023-05-17T00:55:14.864Z,14.67
2023-05-17T00:57:46.911Z,14.65
2023-05-17T01:00:18.142Z,14.65
2023-05-17T01:02:49.788Z,14.66
2023-05-17T01:05:20.702Z,14.66
2023-05-17T01:07:51.523Z,14.67
2023-05-17T01:10:22.622Z,14.68
2023-05-17T01:12:58.089Z,14.67
2023-05-17T01:15:33.139Z,14.66
2023-05-17T01:18:10.759Z,14.67
2023-05-17T01:20:43.698Z,14.63
2023-05-17T01:23:32.664Z,14.59
2023-05-17T01:26:07.922Z,14.58
2023-05-17T01:28:39.712Z,14.60
2023-05-17T01:31:11.778Z,14.59
2023-05-17T01:33:42.831Z,14.56
2023-05-17T01:36:13.656Z,14.56
2023-05-17T01:38:45.548Z,14.55
2023-05-17T01:41:17.834Z,14.54
2023-05-17T01:43:51.470Z,14.52
2023-05-17T01:46:26.058Z,14.53
2023-05-17T01:49:06.849Z,14.52
2023-05-17T01:51:41.111Z,14.53
2023-05-17T01:54:12.866Z,14.54
2023-05-17T01:56:45.104Z,14.55
2023-05-17T01:59:18.244Z,14.51
2023-05-17T02:01:49.848Z,14.49
2023-05-17T02:04:21.358Z,14.49
2023-05-17T02:06:52.198Z,14.47
2023-05-17T02:09:23.003Z,14.46
2023-05-17T02:11:53.895Z,14.46
2023-05-17T02:14:24.772Z,14.45
2023-05-17T02:16:55.518Z,14.44
2023-05-17T02:19:26.295Z,14.43
2023-05-17T02:21:57.066Z,14.39
2023-05-17T02:24:28.020Z,14.36
2023-05-17T02:26:58.847Z,14.33
2023-05-17T02:29:29.782Z,14.34
2023-05-17T02:32:00.532Z,14.34
2023-05-17T02:34:31.452Z,14.34
2023-05-17T02:37:02.293Z,14.35
2023-05-17T02:39:33.482Z,14.34
2023-05-17T02:42:04.235Z,14.35
2023-05-17T02:44:35.039Z,14.34
2023-05-17T02:47:06.209Z,14.34
2023-05-17T02:49:37.265Z,14.36
2023-05-17T02:52:09.534Z,14.36
2023-05-17T02:54:40.483Z,14.35
2023-05-17T02:57:11.665Z,14.35
2023-05-17T02:59:42.530Z,14.36
2023-05-17T03:02:13.568Z,14.35
2023-05-17T03:04:45.017Z,14.35
2023-05-17T03:07:16.362Z,14.35
2023-05-17T03:09:47.618Z,14.35
2023-05-17T03:12:18.418Z,14.35
2023-05-17T03:14:50.668Z,14.35
2023-05-17T03:17:21.599Z,14.35
2023-05-17T03:19:53.140Z,14.32
2023-05-17T03:22:24.467Z,14.31
2023-05-17T03:24:56.316Z,14.32
2023-05-17T03:27:27.314Z,14.32
2023-05-17T03:29:58.693Z,14.33
2023-05-17T03:32:30.778Z,14.34
2023-05-17T03:35:02.636Z,14.35
2023-05-17T03:37:34.022Z,14.33
2023-05-17T03:40:06.106Z,14.31
2023-05-17T03:42:37.109Z,14.32
2023-05-17T03:45:09.466Z,14.31
2023-05-17T03:47:41.094Z,14.29
2023-05-17T03:50:13.957Z,14.30
2023-05-17T03:52:46.307Z,14.31
2023-05-17T03:55:17.266Z,14.31
2023-05-17T03:57:48.191Z,14.31
2023-05-17T04:00:22.349Z,14.33
2023-05-17T04:02:53.274Z,14.34
2023-05-17T04:05:24.421Z,14.33
2023-05-17T04:07:56.815Z,14.31
2023-05-17T04:10:27.670Z,14.30
2023-05-17T04:12:58.442Z,14.29
2023-05-17T04:15:29.432Z,14.29
2023-05-17T04:18:00.585Z,14.29
2023-05-17T04:20:32.453Z,14.28
2023-05-17T04:23:03.295Z,14.27
2023-05-17T04:25:35.449Z,14.25
2023-05-17T04:28:06.229Z,14.27
2023-05-17T04:30:37.353Z,14.31
2023-05-17T04:33:08.246Z,14.32
2023-05-17T04:35:40.024Z,14.33
2023-05-17T04:38:10.914Z,14.32
2023-05-17T04:40:42.571Z,14.33
2023-05-17T04:43:13.291Z,14.36
2023-05-17T04:45:45.550Z,14.37
2023-05-17T04:48:19.784Z,14.39
2023-05-17T04:50:50.661Z,14.42
2023-05-17T04:53:21.743Z,14.44
2023-05-17T04:55:53.361Z,14.47
2023-05-17T04:58:25.252Z,14.50
2023-05-17T05:00:58.585Z,14.53
2023-05-17T05:03:29.530Z,14.57
2023-05-17T05:06:00.593Z,14.58
2023-05-17T05:08:31.586Z,14.59
2023-05-17T05:11:02.402Z,14.61
2023-05-17T05:13:34.903Z,14.61
2023-05-17T05:16:06.244Z,14.64
2023-05-17T05:18:38.319Z,14.66
2023-05-17T05:21:09.624Z,14.66
2023-05-17T05:23:41.894Z,14.68
2023-05-17T05:26:12.835Z,14.70
2023-05-17T05:28:43.767Z,14.72
2023-05-17T05:31:15.274Z,14.74
2023-05-17T05:33:50.377Z,14.77
2023-05-17T05:36:21.839Z,14.77
2023-05-17T05:38:54.462Z,14.76
2023-05-17T05:41:25.470Z,14.76
2023-05-17T05:43:56.386Z,14.77
2023-05-17T05:46:28.305Z,14.76
2023-05-17T05:48:59.472Z,14.77
2023-05-17T05:51:31.732Z,14.77
2023-05-17T05:54:02.535Z,14.80
2023-05-17T05:56:33.555Z,14.81
2023-05-17T05:59:04.336Z,14.82
2023-05-17T06:01:35.286Z,14.83
2023-05-17T06:04:06.343Z,14.83
2023-05-17T06:06:37.325Z,14.82
2023-05-17T06:09:12.319Z,14.83
2023-05-17T06:11:43.186Z,14.84
2023-05-17T06:14:14.196Z,14.82
2023-05-17T06:16:45.151Z,14.81
2023-05-17T06:19:15.826Z,14.82
2023-05-17T06:21:46.956Z,14.84
2023-05-17T06:24:18.129Z,14.84
2023-05-17T06:26:49.003Z,14.82
2023-05-17T06:29:19.805Z,14.81
2023-05-17T06:31:50.802Z,14.81
2023-05-17T06:34:21.641Z,14.80
2023-05-17T06:36:52.350Z,14.79
2023-05-17T06:39:23.201Z,14.81
2023-05-17T06:41:53.982Z,14.83
2023-05-17T06:44:24.818Z,14.83
2023-05-17T06:46:56.704Z,14.80
2023-05-17T06:49:27.518Z,14.77
2023-05-17T06:52:03.494Z,14.76
2023-05-17T06:54:34.670Z,14.76
2023-05-17T06:57:05.844Z,14.77
2023-05-17T06:59:36.663Z,14.76
2023-05-17T07:02:07.874Z,14.76
2023-05-17T07:04:38.665Z,14.79
2023-05-17T07:07:09.692Z,14.86
2023-05-17T07:09:40.596Z,14.92
2023-05-17T07:12:11.461Z,14.98
2023-05-17T07:14:42.275Z,15.01
2023-05-17T07:17:13.495Z,15.04
2023-05-17T07:19:44.892Z,15.06
2023-05-17T07:22:16.168Z,15.11
2023-05-17T07:24:47.180Z,15.14
2023-05-17T07:27:20.909Z,15.21
2023-05-17T07:29:51.650Z,15.30
2023-05-17T07:32:22.525Z,15.39
2023-05-17T07:34:53.205Z,15.46
2023-05-17T07:37:24.137Z,15.55
2023-05-17T07:39:55.010Z,15.62
2023-05-17T07:42:26.070Z,15.66
2023-05-17T07:44:56.844Z,15.69
2023-05-17T07:47:27.788Z,15.67
2023-05-17T07:49:58.846Z,15.64
2023-05-17T07:52:29.758Z,15.64
2023-05-17T07:55:00.588Z,15.63
2023-05-17T07:57:31.450Z,15.62
2023-05-17T08:00:02.259Z,15.61
2023-05-17T08:02:42.309Z,15.59
2023-05-17T08:05:13.355Z,15.60
2023-05-17T08:07:44.266Z,15.63
2023-05-17T08:10:15.020Z,15.66
2023-05-17T08:12:46.295Z,15.71
2023-05-17T08:15:17.097Z,15.74
2023-05-17T08:17:47.977Z,15.79
2023-05-17T08:20:18.939Z,15.82
2023-05-17T08:22:49.759Z,15.89
2023-05-17T08:25:20.933Z,15.94
2023-05-17T08:27:51.920Z,16.00
2023-05-17T08:32:58.955Z,16.14
2023-05-17T08:35:30.029Z,16.17
2023-05-17T08:38:01.145Z,16.22
2023-05-17T08:40:32.325Z,16.27
2023-05-17T08:43:03.534Z,16.29
2023-05-17T08:45:34.456Z,16.35
2023-05-17T08:48:05.959Z,16.40
2023-05-17T08:50:38.403Z,16.46
2023-05-17T08:53:10.538Z,16.52
2023-05-17T08:55:43.717Z,16.59
2023-05-17T08:58:16.815Z,16.61
2023-05-17T09:00:47.892Z,16.59
2023-05-17T09:03:20.059Z,16.57
2023-05-17T09:05:52.905Z,16.57
2023-05-17T09:08:24.163Z,16.57
2023-05-17T09:10:55.497Z,16.55
2023-05-17T09:13:26.628Z,16.52
2023-05-17T09:15:57.412Z,16.54
2023-05-17T09:18:34.292Z,16.57
2023-05-17T09:21:05.587Z,16.63
2023-05-17T09:23:39.080Z,16.72
2023-05-17T09:26:09.895Z,16.83
2023-05-17T09:28:42.278Z,16.96
2023-05-17T09:31:15.259Z,17.05
2023-05-17T09:33:46.932Z,17.12
2023-05-17T09:36:19.330Z,17.14
2023-05-17T09:38:56.885Z,17.16
2023-05-17T09:41:29.266Z,17.21
2023-05-17T09:44:04.040Z,17.29
2023-05-17T09:46:36.296Z,17.38
2023-05-17T09:49:07.537Z,17.53
2023-05-17T09:51:38.917Z,17.61
2023-05-17T09:54:10.444Z,17.70
2023-05-17T09:56:41.522Z,17.77
2023-05-17T09:59:16.306Z,17.90
2023-05-17T10:01:50.398Z,18.01
2023-05-17T10:04:23.341Z,18.05
2023-05-17T10:06:55.137Z,18.00
2023-05-17T10:09:27.320Z,17.94
2023-05-17T10:12:00.046Z,17.87
2023-05-17T10:14:33.179Z,17.82
2023-05-17T10:17:04.395Z,17.84
2023-05-17T10:19:35.284Z,17.86
2023-05-17T10:22:21.852Z,17.89
2023-05-17T10:24:53.939Z,17.93
2023-05-17T10:27:25.165Z,18.02
2023-05-17T10:29:56.023Z,18.15
2023-05-17T10:32:28.534Z,18.30
2023-05-17T10:35:10.241Z,18.42
2023-05-17T10:37:42.423Z,18.50
2023-05-17T10:40:14.364Z,18.65
2023-05-17T10:42:47.828Z,18.87
2023-05-17T10:45:21.665Z,19.00
2023-05-17T10:47:53.659Z,19.05
2023-05-17T10:50:25.243Z,19.04
2023-05-17T10:52:59.086Z,19.04
2023-05-17T10:55:38.601Z,18.98
2023-05-17T10:58:17.225Z,18.85
2023-05-17T11:00:49.615Z,18.79
2023-05-17T11:03:21.130Z,18.76
2023-05-17T11:06:13.176Z,18.77
2023-05-17T11:09:06.687Z,18.78
2023-05-17T11:11:37.434Z,18.89
2023-05-17T11:14:11.920Z,19.01
2023-05-17T11:16:42.748Z,19.20
2023-05-17T11:19:13.476Z,19.37
2023-05-17T11:21:50.289Z,19.45
2023-05-17T11:24:26.951Z,19.45
2023-05-17T11:27:00.414Z,19.37
2023-05-17T11:29:31.964Z,19.22
2023-05-17T11:32:06.764Z,19.18
2023-05-17T11:34:37.872Z,19.14
2023-05-17T11:37:12.130Z,19.12
2023-05-17T11:40:02.239Z,19.09
2023-05-17T11:42:33.324Z,19.06
2023-05-17T11:45:05.121Z,19.00
2023-05-17T11:47:40.130Z,18.97
2023-05-17T11:50:12.274Z,18.97
2023-05-17T11:52:44.267Z,18.95
2023-05-17T11:55:16.153Z,18.93
2023-05-17T11:57:47.725Z,18.92
2023-05-17T12:00:27.293Z,18.92
2023-05-17T12:02:58.562Z,18.92
2023-05-17T12:05:29.482Z,18.87
2023-05-17T12:08:00.526Z,18.84
2023-05-17T12:10:34.818Z,18.78
2023-05-17T12:13:06.179Z,18.75
2023-05-17T12:15:36.922Z,18.72
2023-05-17T12:18:07.867Z,18.70
2023-05-17T12:20:39.452Z,18.69
2023-05-17T12:23:10.290Z,18.70
2023-05-17T12:25:41.380Z,18.74
2023-05-17T12:28:15.641Z,18.73
2023-05-17T12:30:47.102Z,18.68
2023-05-17T12:33:18.396Z,18.65
2023-05-17T12:35:49.756Z,18.69
2023-05-17T12:38:20.951Z,18.70
2023-05-17T12:40:51.951Z,18.70
2023-05-17T12:43:24.527Z,18.67
2023-05-17T12:45:55.534Z,18.61
2023-05-17T12:48:29.234Z,18.54
2023-05-17T12:51:06.474Z,18.50
2023-05-17T12:53:38.374Z,18.44
2023-05-17T12:56:10.091Z,18.38
2023-05-17T12:58:41.067Z,18.32
2023-05-17T13:01:14.685Z,18.32
2023-05-17T13:03:51.486Z,18.29
2023-05-17T13:06:22.652Z,18.24
2023-05-17T13:09:01.176Z,18.21
2023-05-17T13:11:31.941Z,18.12
2023-05-17T13:14:02.746Z,18.03
2023-05-17T13:16:33.560Z,17.96
2023-05-17T13:19:12.775Z,17.91
2023-05-17T13:21:43.665Z,17.90
2023-05-17T13:24:15.264Z,17.89
2023-05-17T13:26:46.187Z,17.89
2023-05-17T13:29:17.521Z,17.87
2023-05-17T13:31:51.539Z,17.82
2023-05-17T13:34:22.285Z,17.73
2023-05-17T13:36:53.244Z,17.68
2023-05-17T13:39:24.582Z,17.61
2023-05-17T13:41:55.280Z,17.55
2023-05-17T13:44:26.149Z,17.52
2023-05-17T13:46:56.893Z,17.45
2023-05-17T13:49:29.386Z,17.42
2023-05-17T13:52:00.884Z,17.41
2023-05-17T13:54:31.783Z,17.39
2023-05-17T13:57:02.542Z,17.38
2023-05-17T13:59:33.317Z,17.38
2023-05-17T14:02:04.696Z,17.37
2023-05-17T14:04:35.786Z,17.32
2023-05-17T14:07:06.705Z,17.29
2023-05-17T14:09:37.569Z,17.25
2023-05-17T14:12:08.698Z,17.22
2023-05-17T14:14:39.553Z,17.17
2023-05-17T14:17:10.269Z,17.13
2023-05-17T14:19:41.194Z,17.08
2023-05-17T14:22:13.836Z,17.05
2023-05-17T14:24:44.621Z,17.03
2023-05-17T14:27:15.429Z,16.97
2023-05-17T14:29:46.234Z,17.00
2023-05-17T14:32:17.016Z,17.03
2023-05-17T14:34:47.804Z,17.03
2023-05-17T14:37:18.743Z,17.01
2023-05-17T14:40:05.436Z,17.03
2023-05-17T14:42:37.558Z,17.08
2023-05-17T14:45:10.041Z,17.07
2023-05-17T14:47:40.930Z,17.06
2023-05-17T14:50:12.413Z,17.02
2023-05-17T14:52:44.360Z,16.99
2023-05-17T14:55:16.619Z,16.99
2023-05-17T14:57:47.352Z,16.99
2023-05-17T15:00:18.800Z,16.94
2023-05-17T15:02:49.536Z,16.92
2023-05-17T15:05:20.760Z,16.89
2023-05-17T15:07:51.883Z,16.88
2023-05-17T15:10:23.279Z,16.86
2023-05-17T15:12:54.107Z,16.86
2023-05-17T15:15:24.873Z,16.83
2023-05-17T15:17:56.774Z,16.81
2023-05-17T15:20:30.802Z,16.78
2023-05-17T15:23:01.650Z,16.75
2023-05-17T15:25:32.406Z,16.73
2023-05-17T15:28:03.242Z,16.68
2023-05-17T15:30:34.159Z,16.63
2023-05-17T15:33:05.187Z,16.61
2023-05-17T15:35:37.217Z,16.61
2023-05-17T15:38:08.101Z,16.60
2023-05-17T15:40:39.413Z,16.59
2023-05-17T15:43:10.164Z,16.57
2023-05-17T15:45:40.978Z,16.50
2023-05-17T15:48:12.106Z,16.47
2023-05-17T15:50:42.912Z,16.44
2023-05-17T15:53:14.850Z,16.44
2023-05-17T15:55:50.802Z,16.43
2023-05-17T15:58:22.192Z,16.37
2023-05-17T16:00:53.053Z,16.32
2023-05-17T16:03:23.907Z,16.29
2023-05-17T16:05:54.775Z,16.30
2023-05-17T16:08:25.961Z,16.27
2023-05-17T16:10:56.897Z,16.26
2023-05-17T16:13:27.788Z,16.25
2023-05-17T16:15:59.579Z,16.24
2023-05-17T16:18:31.388Z,16.22
2023-05-17T16:21:03.691Z,16.17
2023-05-17T16:23:34.573Z,16.10
2023-05-17T16:26:05.455Z,16.04
2023-05-17T16:28:37.085Z,16.01
2023-05-17T16:31:07.989Z,15.98
2023-05-17T16:33:38.967Z,15.99
2023-05-17T16:36:10.662Z,15.97
2023-05-17T16:38:41.567Z,15.94
2023-05-17T16:41:12.313Z,15.88
2023-05-17T16:43:43.105Z,15.85
2023-05-17T16:46:13.871Z,15.82
2023-05-17T16:48:44.713Z,15.79
2023-05-17T16:51:15.480Z,15.75
2023-05-17T16:53:46.450Z,15.70
2023-05-17T16:56:17.361Z,15.67
2023-05-17T16:58:48.077Z,15.65
2023-05-17T17:01:18.835Z,15.59
2023-05-17T17:03:49.723Z,15.53
2023-05-17T17:06:20.636Z,15.50
2023-05-17T17:08:51.584Z,15.50
2023-05-17T17:11:22.901Z,15.48
2023-05-17T17:13:54.103Z,15.43
2023-05-17T17:16:25.023Z,15.40
2023-05-17T17:18:56.096Z,15.37
2023-05-17T17:21:26.886Z,15.35
2023-05-17T17:23:57.911Z,15.32
2023-05-17T17:26:28.608Z,15.28
2023-05-17T17:28:59.618Z,15.25
2023-05-17T17:31:30.438Z,15.18
2023-05-17T17:34:01.196Z,15.16
2023-05-17T17:36:32.041Z,15.10
2023-05-17T17:39:02.966Z,15.05
2023-05-17T17:41:33.944Z,14.99
2023-05-17T17:44:04.939Z,14.94
2023-05-17T17:46:36.290Z,14.92
2023-05-17T17:49:07.825Z,14.90
2023-05-17T17:51:38.761Z,14.90
2023-05-17T17:54:09.628Z,14.90
2023-05-17T17:56:40.695Z,14.87
2023-05-17T17:59:12.522Z,14.82
2023-05-17T18:01:44.698Z,14.78
2023-05-17T18:04:16.375Z,14.73
2023-05-17T18:06:47.247Z,14.69
2023-05-17T18:09:18.152Z,14.63
2023-05-17T18:11:49.490Z,14.61
2023-05-17T18:14:21.656Z,14.54
2023-05-17T18:16:52.506Z,14.46
2023-05-17T18:19:23.362Z,14.42
2023-05-17T18:21:54.275Z,14.41
2023-05-17T18:24:25.186Z,14.38
2023-05-17T18:26:56.104Z,14.35
2023-05-17T18:29:26.942Z,14.30
2023-05-17T18:31:59.596Z,14.29
2023-05-17T18:34:30.711Z,14.27
2023-05-17T18:37:01.634Z,14.26
2023-05-17T18:39:32.505Z,14.26
2023-05-17T18:42:04.198Z,14.24
2023-05-17T18:44:35.393Z,14.24
2023-05-17T18:47:06.646Z,14.22
2023-05-17T18:49:40.563Z,14.20
2023-05-17T18:52:11.365Z,14.19
2023-05-17T18:54:42.090Z,14.16
2023-05-17T18:57:14.222Z,14.11
2023-05-17T18:59:45.100Z,14.07
2023-05-17T19:02:15.987Z,14.06
2023-05-17T19:04:47.248Z,14.03
2023-05-17T19:07:18.393Z,14.03
2023-05-17T19:09:49.216Z,14.03
2023-05-17T19:12:19.988Z,13.99
2023-05-17T19:14:50.743Z,13.98
2023-05-17T19:17:21.628Z,13.96
2023-05-17T19:19:52.353Z,13.91
2023-05-17T19:22:23.199Z,13.84
2023-05-17T19:24:54.014Z,13.79
2023-05-17T19:27:24.803Z,13.75
2023-05-17T19:29:56.002Z,13.76
2023-05-17T19:32:27.183Z,13.78
2023-05-17T19:34:58.175Z,13.76
2023-05-17T19:37:29.035Z,13.75
2023-05-17T19:40:00.190Z,13.76
2023-05-17T19:42:31.039Z,13.77
2023-05-17T19:45:01.758Z,13.74
2023-05-17T19:47:32.679Z,13.74
2023-05-17T19:50:03.516Z,13.75
2023-05-17T19:52:34.357Z,13.73
2023-05-17T19:55:05.537Z,13.70
2023-05-17T19:57:36.391Z,13.67
2023-05-17T20:00:08.470Z,13.64
2023-05-17T20:02:39.347Z,13.64
2023-05-17T20:05:10.915Z,13.64
2023-05-17T20:07:41.863Z,13.62
2023-05-17T20:10:13.612Z,13.62
2023-05-17T20:12:44.370Z,13.61
2023-05-17T20:15:15.228Z,13.60
2023-05-17T20:17:45.980Z,13.59
2023-05-17T20:20:16.832Z,13.59
2023-05-17T20:22:47.801Z,13.57
2023-05-17T20:25:18.673Z,13.56
2023-05-17T20:27:49.384Z,13.52
2023-05-17T20:30:20.261Z,13.50
2023-05-17T20:32:51.083Z,13.46
2023-05-17T20:35:22.134Z,13.44
2023-05-17T20:37:52.920Z,13.45
2023-05-17T20:40:23.903Z,13.46
2023-05-17T20:42:54.816Z,13.45
2023-05-17T20:45:27.526Z,13.43
2023-05-17T20:47:58.455Z,13.41
2023-05-17T20:50:30.057Z,13.37
2023-05-17T20:53:01.252Z,13.36
2023-05-17T20:55:32.158Z,13.34
2023-05-17T20:58:02.940Z,13.30
2023-05-17T21:01:29.120Z,13.25
2023-05-17T21:04:17.549Z,13.20
2023-05-17T21:06:48.352Z,13.15
2023-05-17T21:09:19.191Z,13.13
2023-05-17T21:11:52.295Z,13.13
2023-05-17T21:14:23.146Z,13.15
2023-05-17T21:16:56.396Z,13.15
2023-05-17T21:19:27.125Z,13.15
2023-05-17T21:21:58.011Z,13.14
2023-05-17T21:24:28.980Z,13.14
2023-05-17T21:27:01.283Z,13.13
2023-05-17T21:29:32.155Z,13.10
2023-05-17T21:32:03.756Z,13.09
2023-05-17T21:34:34.484Z,13.08
2023-05-17T21:37:05.734Z,13.08
2023-05-17T21:39:36.485Z,13.06
2023-05-17T21:42:07.480Z,13.05
2023-05-17T21:44:38.336Z,13.07
2023-05-17T21:47:09.250Z,13.06
2023-05-17T21:49:40.097Z,13.06
2023-05-17T21:52:10.895Z,13.02
2023-05-17T21:54:41.739Z,13.01
2023-05-17T21:57:12.610Z,13.00
2023-05-17T21:59:43.471Z,12.99
2023-05-17T22:02:14.440Z,13.00
2023-05-17T22:04:45.475Z,13.00
2023-05-17T22:07:16.267Z,12.99
2023-05-17T22:09:47.582Z,12.97
2023-05-17T22:12:25.690Z,12.96
2023-05-17T22:14:57.119Z,12.95
2023-05-17T22:17:35.077Z,12.93
2023-05-17T22:20:12.048Z,12.91
2023-05-17T22:22:42.884Z,12.90
2023-05-17T22:25:15.674Z,12.88
2023-05-17T22:27:46.668Z,12.88
2023-05-17T22:30:17.496Z,12.88
2023-05-17T22:32:48.347Z,12.86
2023-05-17T22:35:19.313Z,12.83
2023-05-17T22:37:50.156Z,12.80
2023-05-17T22:40:21.350Z,12.80
2023-05-17T22:42:52.405Z,12.79
2023-05-17T22:45:26.071Z,12.76
2023-05-17T22:47:57.381Z,12.74
2023-05-17T22:50:30.689Z,12.74
2023-05-17T22:53:02.193Z,12.71
2023-05-17T22:55:33.283Z,12.68
2023-05-17T22:58:04.088Z,12.64
2023-05-17T23:00:34.865Z,12.61
2023-05-17T23:03:05.789Z,12.57
2023-05-17T23:05:37.013Z,12.56
2023-05-17T23:08:09.995Z,12.55
2023-05-17T23:10:40.846Z,12.51
2023-05-17T23:13:11.657Z,12.49
2023-05-17T23:15:47.089Z,12.45
2023-05-17T23:18:18.283Z,12.41
2023-05-17T23:20:49.189Z,12.38
2023-05-17T23:23:23.118Z,12.34
2023-05-17T23:25:56.558Z,12.33
2023-05-17T23:28:27.398Z,12.31
2023-05-17T23:31:02.446Z,12.27
2023-05-17T23:33:33.361Z,12.24
2023-05-17T23:36:04.142Z,12.23
2023-05-17T23:38:34.854Z,12.21
2023-05-17T23:41:05.690Z,12.19
2023-05-17T23:43:36.555Z,12.19
2023-05-17T23:46:08.958Z,12.18
2023-05-17T23:48:39.786Z,12.14
2023-05-17T23:51:10.658Z,12.09
2023-05-17T23:53:42.269Z,12.07
2023-05-17T23:56:13.011Z,12.07
2023-05-17T23:58:43.774Z,12.05
